sensor_id;sensor_type;location;lat;lon;timestamp;P1;durP1;ratioP1;P2;durP2;ratioP2
42124;SDS011;27787;44.594;11.046;2024-03-23T00:55:27;23.23;;;12.05;;
42124;SDS011;27787;44.594;11.046;2024-03-23T00:58:11;24.10;;;13.00;;
42124;SDS011;27787;44.594;11.046;2024-03-23T01:00:56;26.70;;;13.13;;
42124;SDS011;27787;44.594;11.046;2024-03-23T01:03:40;27.08;;;13.10;;
42124;SDS011;27787;44.594;11.046;2024-03-23T01:06:24;28.35;;;13.23;;
42124;SDS011;27787;44.594;11.046;2024-03-23T01:09:08;26.08;;;13.27;;
42124;SDS011;27787;44.594;11.046;2024-03-23T01:11:54;25.70;;;12.70;;
42124;SDS011;27787;44.594;11.046;2024-03-23T01:14:38;24.70;;;12.50;;
42124;SDS011;27787;44.594;11.046;2024-03-23T01:17:23;21.92;;;11.82;;
42124;SDS011;27787;44.594;11.046;2024-03-23T01:20:07;28.25;;;12.63;;
42124;SDS011;27787;44.594;11.046;2024-03-23T01:22:52;29.50;;;12.68;;
42124;SDS011;27787;44.594;11.046;2024-03-23T01:25:36;26.65;;;11.85;;
42124;SDS011;27787;44.594;11.046;2024-03-23T01:28:20;29.40;;;12.10;;
42124;SDS011;27787;44.594;11.046;2024-03-23T01:31:05;20.70;;;10.80;;
42124;SDS011;27787;44.594;11.046;2024-03-23T01:33:49;27.42;;;12.10;;
42124;SDS011;27787;44.594;11.046;2024-03-23T01:36:32;23.77;;;12.07;;
42124;SDS011;27787;44.594;11.046;2024-03-23T01:39:17;29.40;;;12.77;;
42124;SDS011;27787;44.594;11.046;2024-03-23T01:42:01;23.85;;;11.63;;
42124;SDS011;27787;44.594;11.046;2024-03-23T01:44:45;19.35;;;11.02;;
42124;SDS011;27787;44.594;11.046;2024-03-23T01:47:29;25.95;;;12.98;;
42124;SDS011;27787;44.594;11.046;2024-03-23T01:50:14;22.67;;;11.57;;
42124;SDS011;27787;44.594;11.046;2024-03-23T01:52:58;22.85;;;11.43;;
42124;SDS011;27787;44.594;11.046;2024-03-23T01:55:43;25.33;;;11.55;;
42124;SDS011;27787;44.594;11.046;2024-03-23T01:58:27;22.80;;;10.98;;
42124;SDS011;27787;44.594;11.046;2024-03-23T02:01:12;26.85;;;11.88;;
42124;SDS011;27787;44.594;11.046;2024-03-23T02:03:56;28.08;;;12.18;;
42124;SDS011;27787;44.594;11.046;2024-03-23T02:06:41;24.27;;;11.55;;
42124;SDS011;27787;44.594;11.046;2024-03-23T02:09:25;24.90;;;11.43;;
42124;SDS011;27787;44.594;11.046;2024-03-23T02:12:09;23.15;;;10.40;;
42124;SDS011;27787;44.594;11.046;2024-03-23T02:14:54;21.27;;;10.93;;
42124;SDS011;27787;44.594;11.046;2024-03-23T02:17:38;24.73;;;11.50;;
42124;SDS011;27787;44.594;11.046;2024-03-23T02:20:23;25.92;;;11.90;;
42124;SDS011;27787;44.594;11.046;2024-03-23T02:23:16;21.77;;;11.35;;
42124;SDS011;27787;44.594;11.046;2024-03-23T02:26:04;28.25;;;11.95;;
42124;SDS011;27787;44.594;11.046;2024-03-23T02:28:48;20.02;;;10.80;;
42124;SDS011;27787;44.594;11.046;2024-03-23T02:31:32;21.33;;;10.15;;
42124;SDS011;27787;44.594;11.046;2024-03-23T02:34:16;20.13;;;10.75;;
42124;SDS011;27787;44.594;11.046;2024-03-23T02:37:01;21.10;;;10.75;;
42124;SDS011;27787;44.594;11.046;2024-03-23T02:39:45;22.08;;;10.55;;
42124;SDS011;27787;44.594;11.046;2024-03-23T02:42:29;22.75;;;10.98;;
42124;SDS011;27787;44.594;11.046;2024-03-23T02:45:13;24.20;;;10.07;;
42124;SDS011;27787;44.594;11.046;2024-03-23T02:47:58;22.25;;;10.25;;
42124;SDS011;27787;44.594;11.046;2024-03-23T02:50:42;20.67;;;9.32;;
42124;SDS011;27787;44.594;11.046;2024-03-23T02:53:27;18.75;;;9.95;;
42124;SDS011;27787;44.594;11.046;2024-03-23T02:56:11;20.67;;;11.48;;
42124;SDS011;27787;44.594;11.046;2024-03-23T02:59:00;23.38;;;10.38;;
42124;SDS011;27787;44.594;11.046;2024-03-23T03:01:44;20.45;;;9.80;;
42124;SDS011;27787;44.594;11.046;2024-03-23T03:04:28;22.58;;;10.85;;
42124;SDS011;27787;44.594;11.046;2024-03-23T03:07:13;22.88;;;9.98;;
42124;SDS011;27787;44.594;11.046;2024-03-23T03:09:57;18.42;;;10.45;;
42124;SDS011;27787;44.594;11.046;2024-03-23T03:12:41;19.70;;;10.60;;
42124;SDS011;27787;44.594;11.046;2024-03-23T03:15:25;19.63;;;8.90;;
42124;SDS011;27787;44.594;11.046;2024-03-23T03:18:10;18.30;;;9.43;;
42124;SDS011;27787;44.594;11.046;2024-03-23T03:20:54;18.50;;;9.55;;
42124;SDS011;27787;44.594;11.046;2024-03-23T03:23:39;17.75;;;8.95;;
42124;SDS011;27787;44.594;11.046;2024-03-23T03:26:23;17.15;;;8.73;;
42124;SDS011;27787;44.594;11.046;2024-03-23T03:29:08;17.98;;;9.32;;
42124;SDS011;27787;44.594;11.046;2024-03-23T03:31:52;18.63;;;9.30;;
42124;SDS011;27787;44.594;11.046;2024-03-23T03:34:36;16.98;;;9.05;;
42124;SDS011;27787;44.594;11.046;2024-03-23T03:37:21;15.50;;;8.18;;
42124;SDS011;27787;44.594;11.046;2024-03-23T03:40:05;15.55;;;8.18;;
42124;SDS011;27787;44.594;11.046;2024-03-23T03:42:52;12.63;;;7.20;;
42124;SDS011;27787;44.594;11.046;2024-03-23T03:45:37;19.55;;;9.32;;
42124;SDS011;27787;44.594;11.046;2024-03-23T03:48:20;13.15;;;7.68;;
42124;SDS011;27787;44.594;11.046;2024-03-23T03:51:05;19.77;;;9.20;;
42124;SDS011;27787;44.594;11.046;2024-03-23T03:53:49;16.67;;;8.85;;
42124;SDS011;27787;44.594;11.046;2024-03-23T03:56:34;15.80;;;9.18;;
42124;SDS011;27787;44.594;11.046;2024-03-23T03:59:18;16.95;;;8.70;;
42124;SDS011;27787;44.594;11.046;2024-03-23T04:02:03;22.58;;;9.07;;
42124;SDS011;27787;44.594;11.046;2024-03-23T04:04:47;18.55;;;8.18;;
42124;SDS011;27787;44.594;11.046;2024-03-23T04:07:31;19.85;;;9.30;;
42124;SDS011;27787;44.594;11.046;2024-03-23T04:10:16;16.40;;;8.73;;
42124;SDS011;27787;44.594;11.046;2024-03-23T04:13:00;15.38;;;7.32;;
42124;SDS011;27787;44.594;11.046;2024-03-23T04:15:45;14.60;;;6.65;;
42124;SDS011;27787;44.594;11.046;2024-03-23T04:18:29;15.15;;;6.78;;
42124;SDS011;27787;44.594;11.046;2024-03-23T04:21:13;15.70;;;7.28;;
42124;SDS011;27787;44.594;11.046;2024-03-23T04:23:58;11.63;;;6.68;;
42124;SDS011;27787;44.594;11.046;2024-03-23T04:26:42;11.00;;;5.25;;
42124;SDS011;27787;44.594;11.046;2024-03-23T04:29:27;10.93;;;6.15;;
42124;SDS011;27787;44.594;11.046;2024-03-23T04:32:11;13.48;;;6.10;;
42124;SDS011;27787;44.594;11.046;2024-03-23T04:34:55;13.43;;;7.40;;
42124;SDS011;27787;44.594;11.046;2024-03-23T04:37:40;13.38;;;6.43;;
42124;SDS011;27787;44.594;11.046;2024-03-23T04:40:27;16.10;;;6.50;;
42124;SDS011;27787;44.594;11.046;2024-03-23T04:43:11;13.20;;;6.47;;
42124;SDS011;27787;44.594;11.046;2024-03-23T04:45:56;12.88;;;6.95;;
42124;SDS011;27787;44.594;11.046;2024-03-23T04:48:40;13.73;;;6.22;;
42124;SDS011;27787;44.594;11.046;2024-03-23T04:51:25;11.13;;;5.82;;
42124;SDS011;27787;44.594;11.046;2024-03-23T04:54:10;11.65;;;6.15;;
42124;SDS011;27787;44.594;11.046;2024-03-23T04:56:54;11.65;;;6.40;;
42124;SDS011;27787;44.594;11.046;2024-03-23T04:59:39;12.18;;;5.93;;
42124;SDS011;27787;44.594;11.046;2024-03-23T05:02:23;13.23;;;5.85;;
42124;SDS011;27787;44.594;11.046;2024-03-23T05:07:53;9.95;;;4.95;;
42124;SDS011;27787;44.594;11.046;2024-03-23T05:10:38;12.85;;;4.80;;
42124;SDS011;27787;44.594;11.046;2024-03-23T05:13:22;9.85;;;5.05;;
42124;SDS011;27787;44.594;11.046;2024-03-23T05:16:06;9.40;;;5.05;;
42124;SDS011;27787;44.594;11.046;2024-03-23T05:18:50;6.75;;;3.95;;
42124;SDS011;27787;44.594;11.046;2024-03-23T05:21:34;8.13;;;4.05;;
42124;SDS011;27787;44.594;11.046;2024-03-23T05:24:18;12.23;;;4.60;;
42124;SDS011;27787;44.594;11.046;2024-03-23T05:27:02;9.57;;;4.35;;
42124;SDS011;27787;44.594;11.046;2024-03-23T05:29:47;7.82;;;4.10;;
42124;SDS011;27787;44.594;11.046;2024-03-23T05:32:31;10.90;;;4.30;;
42124;SDS011;27787;44.594;11.046;2024-03-23T05:35:16;8.82;;;4.47;;
42124;SDS011;27787;44.594;11.046;2024-03-23T05:37:59;7.55;;;4.05;;
42124;SDS011;27787;44.594;11.046;2024-03-23T05:40:52;7.05;;;3.72;;
42124;SDS011;27787;44.594;11.046;2024-03-23T05:43:39;7.38;;;3.90;;
42124;SDS011;27787;44.594;11.046;2024-03-23T05:46:24;9.95;;;4.35;;
42124;SDS011;27787;44.594;11.046;2024-03-23T05:49:08;6.65;;;3.53;;
42124;SDS011;27787;44.594;11.046;2024-03-23T05:51:53;7.97;;;4.30;;
42124;SDS011;27787;44.594;11.046;2024-03-23T05:54:37;9.57;;;4.28;;
42124;SDS011;27787;44.594;11.046;2024-03-23T05:57:21;9.38;;;4.10;;
42124;SDS011;27787;44.594;11.046;2024-03-23T06:00:05;7.75;;;4.30;;
42124;SDS011;27787;44.594;11.046;2024-03-23T06:02:55;8.13;;;4.43;;
42124;SDS011;27787;44.594;11.046;2024-03-23T06:05:40;8.75;;;4.50;;
42124;SDS011;27787;44.594;11.046;2024-03-23T06:08:24;8.65;;;4.55;;
42124;SDS011;27787;44.594;11.046;2024-03-23T06:11:09;9.93;;;4.45;;
42124;SDS011;27787;44.594;11.046;2024-03-23T06:13:53;10.55;;;4.45;;
42124;SDS011;27787;44.594;11.046;2024-03-23T06:16:37;8.52;;;5.05;;
42124;SDS011;27787;44.594;11.046;2024-03-23T06:19:21;11.70;;;4.90;;
42124;SDS011;27787;44.594;11.046;2024-03-23T06:22:05;12.38;;;4.45;;
42124;SDS011;27787;44.594;11.046;2024-03-23T06:24:50;6.68;;;4.60;;
42124;SDS011;27787;44.594;11.046;2024-03-23T06:27:34;8.07;;;3.92;;
42124;SDS011;27787;44.594;11.046;2024-03-23T06:30:19;9.88;;;4.72;;
42124;SDS011;27787;44.594;11.046;2024-03-23T06:33:03;13.05;;;4.80;;
42124;SDS011;27787;44.594;11.046;2024-03-23T06:35:50;10.13;;;5.00;;
42124;SDS011;27787;44.594;11.046;2024-03-23T06:38:36;8.43;;;4.95;;
42124;SDS011;27787;44.594;11.046;2024-03-23T06:41:22;9.35;;;4.47;;
42124;SDS011;27787;44.594;11.046;2024-03-23T06:44:06;9.68;;;5.75;;
42124;SDS011;27787;44.594;11.046;2024-03-23T06:46:50;11.48;;;5.40;;
42124;SDS011;27787;44.594;11.046;2024-03-23T06:49:34;11.55;;;5.40;;
42124;SDS011;27787;44.594;11.046;2024-03-23T06:52:19;9.45;;;5.15;;
42124;SDS011;27787;44.594;11.046;2024-03-23T06:55:04;11.10;;;5.38;;
42124;SDS011;27787;44.594;11.046;2024-03-23T06:57:49;12.07;;;6.18;;
42124;SDS011;27787;44.594;11.046;2024-03-23T07:00:34;17.33;;;6.33;;
42124;SDS011;27787;44.594;11.046;2024-03-23T07:03:18;9.55;;;5.95;;
42124;SDS011;27787;44.594;11.046;2024-03-23T07:06:03;15.90;;;6.85;;
42124;SDS011;27787;44.594;11.046;2024-03-23T07:08:47;13.43;;;6.68;;
42124;SDS011;27787;44.594;11.046;2024-03-23T07:11:32;13.90;;;7.43;;
42124;SDS011;27787;44.594;11.046;2024-03-23T07:14:16;17.25;;;6.97;;
42124;SDS011;27787;44.594;11.046;2024-03-23T07:17:00;15.43;;;8.10;;
42124;SDS011;27787;44.594;11.046;2024-03-23T07:19:46;17.90;;;7.18;;
42124;SDS011;27787;44.594;11.046;2024-03-23T07:25:15;11.48;;;6.63;;
42124;SDS011;27787;44.594;11.046;2024-03-23T07:28:00;17.48;;;7.68;;
42124;SDS011;27787;44.594;11.046;2024-03-23T07:30:45;15.25;;;8.25;;
42124;SDS011;27787;44.594;11.046;2024-03-23T07:33:30;11.50;;;6.90;;
42124;SDS011;27787;44.594;11.046;2024-03-23T07:36:15;19.00;;;8.40;;
42124;SDS011;27787;44.594;11.046;2024-03-23T07:38:59;12.45;;;7.03;;
42124;SDS011;27787;44.594;11.046;2024-03-23T07:41:46;13.60;;;7.03;;
42124;SDS011;27787;44.594;11.046;2024-03-23T07:44:31;14.90;;;7.10;;
42124;SDS011;27787;44.594;11.046;2024-03-23T07:47:15;15.15;;;7.35;;
42124;SDS011;27787;44.594;11.046;2024-03-23T07:50:00;14.68;;;7.85;;
42124;SDS011;27787;44.594;11.046;2024-03-23T07:52:44;14.13;;;6.93;;
42124;SDS011;27787;44.594;11.046;2024-03-23T07:55:28;12.02;;;6.53;;
42124;SDS011;27787;44.594;11.046;2024-03-23T07:58:12;19.25;;;6.78;;
42124;SDS011;27787;44.594;11.046;2024-03-23T08:01:01;14.27;;;6.97;;
42124;SDS011;27787;44.594;11.046;2024-03-23T08:03:54;12.65;;;6.90;;
42124;SDS011;27787;44.594;11.046;2024-03-23T08:06:38;13.43;;;6.30;;
42124;SDS011;27787;44.594;11.046;2024-03-23T08:09:22;15.57;;;6.70;;
42124;SDS011;27787;44.594;11.046;2024-03-23T08:12:06;12.52;;;6.78;;
42124;SDS011;27787;44.594;11.046;2024-03-23T08:14:50;11.48;;;5.97;;
42124;SDS011;27787;44.594;11.046;2024-03-23T08:17:34;11.38;;;5.68;;
42124;SDS011;27787;44.594;11.046;2024-03-23T08:20:18;9.90;;;5.28;;
42124;SDS011;27787;44.594;11.046;2024-03-23T08:23:02;12.23;;;5.93;;
42124;SDS011;27787;44.594;11.046;2024-03-23T08:25:47;11.88;;;5.47;;
42124;SDS011;27787;44.594;11.046;2024-03-23T08:28:31;12.10;;;5.30;;
42124;SDS011;27787;44.594;11.046;2024-03-23T08:31:15;14.32;;;5.65;;
42124;SDS011;27787;44.594;11.046;2024-03-23T08:33:59;10.70;;;5.55;;
42124;SDS011;27787;44.594;11.046;2024-03-23T08:36:43;10.52;;;4.95;;
42124;SDS011;27787;44.594;11.046;2024-03-23T08:39:27;10.85;;;5.90;;
42124;SDS011;27787;44.594;11.046;2024-03-23T08:42:11;12.27;;;5.72;;
42124;SDS011;27787;44.594;11.046;2024-03-23T08:44:55;15.98;;;6.22;;
42124;SDS011;27787;44.594;11.046;2024-03-23T08:47:40;11.45;;;5.45;;
42124;SDS011;27787;44.594;11.046;2024-03-23T08:50:24;11.77;;;5.10;;
42124;SDS011;27787;44.594;11.046;2024-03-23T08:53:08;12.82;;;5.20;;
42124;SDS011;27787;44.594;11.046;2024-03-23T08:55:53;10.20;;;5.43;;
42124;SDS011;27787;44.594;11.046;2024-03-23T08:58:38;12.90;;;6.05;;
42124;SDS011;27787;44.594;11.046;2024-03-23T09:01:23;14.65;;;5.97;;
42124;SDS011;27787;44.594;11.046;2024-03-23T09:04:10;11.38;;;5.38;;
42124;SDS011;27787;44.594;11.046;2024-03-23T09:06:54;15.60;;;5.43;;
42124;SDS011;27787;44.594;11.046;2024-03-23T09:09:39;12.30;;;5.30;;
42124;SDS011;27787;44.594;11.046;2024-03-23T09:12:24;13.48;;;5.78;;
42124;SDS011;27787;44.594;11.046;2024-03-23T09:15:08;15.98;;;5.80;;
42124;SDS011;27787;44.594;11.046;2024-03-23T09:17:53;11.63;;;5.65;;
42124;SDS011;27787;44.594;11.046;2024-03-23T09:20:38;12.57;;;5.47;;
42124;SDS011;27787;44.594;11.046;2024-03-23T09:23:22;12.55;;;5.55;;
42124;SDS011;27787;44.594;11.046;2024-03-23T09:26:06;11.25;;;5.07;;
42124;SDS011;27787;44.594;11.046;2024-03-23T09:28:53;10.45;;;5.28;;
42124;SDS011;27787;44.594;11.046;2024-03-23T09:31:39;13.27;;;5.70;;
42124;SDS011;27787;44.594;11.046;2024-03-23T09:34:24;9.90;;;5.10;;
42124;SDS011;27787;44.594;11.046;2024-03-23T09:37:08;13.00;;;6.07;;
42124;SDS011;27787;44.594;11.046;2024-03-23T09:39:52;11.50;;;5.32;;
42124;SDS011;27787;44.594;11.046;2024-03-23T09:42:37;13.75;;;4.75;;
42124;SDS011;27787;44.594;11.046;2024-03-23T09:45:21;13.65;;;5.22;;
42124;SDS011;27787;44.594;11.046;2024-03-23T09:48:10;11.40;;;4.57;;
42124;SDS011;27787;44.594;11.046;2024-03-23T09:50:54;16.77;;;4.75;;
42124;SDS011;27787;44.594;11.046;2024-03-23T09:53:39;11.27;;;4.40;;
42124;SDS011;27787;44.594;11.046;2024-03-23T09:56:23;8.60;;;4.70;;
42124;SDS011;27787;44.594;11.046;2024-03-23T09:59:07;8.25;;;4.18;;
42124;SDS011;27787;44.594;11.046;2024-03-23T10:01:51;7.55;;;3.60;;
42124;SDS011;27787;44.594;11.046;2024-03-23T10:04:41;6.72;;;3.78;;
42124;SDS011;27787;44.594;11.046;2024-03-23T10:07:27;8.75;;;3.72;;
42124;SDS011;27787;44.594;11.046;2024-03-23T10:10:14;8.65;;;4.47;;
42124;SDS011;27787;44.594;11.046;2024-03-23T10:13:00;10.70;;;4.10;;
42124;SDS011;27787;44.594;11.046;2024-03-23T10:15:44;11.38;;;5.63;;
42124;SDS011;27787;44.594;11.046;2024-03-23T10:18:29;9.82;;;4.80;;
42124;SDS011;27787;44.594;11.046;2024-03-23T10:21:14;11.77;;;5.03;;
42124;SDS011;27787;44.594;11.046;2024-03-23T10:24:00;10.48;;;4.78;;
42124;SDS011;27787;44.594;11.046;2024-03-23T10:26:55;7.82;;;3.70;;
42124;SDS011;27787;44.594;11.046;2024-03-23T10:29:41;6.97;;;3.97;;
42124;SDS011;27787;44.594;11.046;2024-03-23T10:32:25;7.63;;;3.78;;
42124;SDS011;27787;44.594;11.046;2024-03-23T10:35:19;8.40;;;4.57;;
42124;SDS011;27787;44.594;11.046;2024-03-23T10:38:06;7.88;;;4.40;;
42124;SDS011;27787;44.594;11.046;2024-03-23T10:40:51;8.15;;;4.45;;
42124;SDS011;27787;44.594;11.046;2024-03-23T10:43:36;8.20;;;4.60;;
42124;SDS011;27787;44.594;11.046;2024-03-23T10:46:21;7.28;;;3.40;;
42124;SDS011;27787;44.594;11.046;2024-03-23T10:49:06;7.22;;;4.10;;
42124;SDS011;27787;44.594;11.046;2024-03-23T10:51:50;8.00;;;4.50;;
42124;SDS011;27787;44.594;11.046;2024-03-23T10:54:35;8.05;;;4.25;;
42124;SDS011;27787;44.594;11.046;2024-03-23T11:00:37;8.77;;;4.13;;
42124;SDS011;27787;44.594;11.046;2024-03-23T11:06:35;9.35;;;4.82;;
42124;SDS011;27787;44.594;11.046;2024-03-23T11:09:39;12.13;;;5.28;;
42124;SDS011;27787;44.594;11.046;2024-03-23T11:12:28;10.20;;;5.60;;
42124;SDS011;27787;44.594;11.046;2024-03-23T11:15:15;8.55;;;4.78;;
42124;SDS011;27787;44.594;11.046;2024-03-23T11:18:04;10.57;;;5.05;;
42124;SDS011;27787;44.594;11.046;2024-03-23T11:20:51;11.55;;;5.22;;
42124;SDS011;27787;44.594;11.046;2024-03-23T11:23:36;12.03;;;5.20;;
42124;SDS011;27787;44.594;11.046;2024-03-23T11:26:20;13.55;;;5.85;;
42124;SDS011;27787;44.594;11.046;2024-03-23T11:29:11;11.05;;;4.75;;
42124;SDS011;27787;44.594;11.046;2024-03-23T11:32:00;11.63;;;5.30;;
42124;SDS011;27787;44.594;11.046;2024-03-23T11:34:47;10.48;;;5.28;;
42124;SDS011;27787;44.594;11.046;2024-03-23T11:37:31;9.73;;;4.82;;
42124;SDS011;27787;44.594;11.046;2024-03-23T11:40:18;10.25;;;4.28;;
42124;SDS011;27787;44.594;11.046;2024-03-23T11:43:07;10.52;;;5.30;;
42124;SDS011;27787;44.594;11.046;2024-03-23T11:45:52;10.32;;;5.10;;
42124;SDS011;27787;44.594;11.046;2024-03-23T11:48:37;7.63;;;4.22;;
42124;SDS011;27787;44.594;11.046;2024-03-23T11:51:22;12.45;;;5.13;;
42124;SDS011;27787;44.594;11.046;2024-03-23T11:54:09;10.13;;;5.15;;
42124;SDS011;27787;44.594;11.046;2024-03-23T11:56:57;12.80;;;5.13;;
42124;SDS011;27787;44.594;11.046;2024-03-23T11:59:42;9.48;;;4.38;;
42124;SDS011;27787;44.594;11.046;2024-03-23T12:02:28;11.32;;;5.35;;
42124;SDS011;27787;44.594;11.046;2024-03-23T12:05:15;11.18;;;5.05;;
42124;SDS011;27787;44.594;11.046;2024-03-23T12:11:13;12.50;;;5.38;;
42124;SDS011;27787;44.594;11.046;2024-03-23T12:13:59;11.02;;;4.72;;
42124;SDS011;27787;44.594;11.046;2024-03-23T12:16:44;10.93;;;4.60;;
42124;SDS011;27787;44.594;11.046;2024-03-23T12:19:28;13.05;;;5.50;;
42124;SDS011;27787;44.594;11.046;2024-03-23T12:22:12;11.15;;;5.25;;
42124;SDS011;27787;44.594;11.046;2024-03-23T12:24:56;14.65;;;6.10;;
42124;SDS011;27787;44.594;11.046;2024-03-23T12:27:43;9.63;;;4.57;;
42124;SDS011;27787;44.594;11.046;2024-03-23T12:30:27;11.10;;;5.07;;
42124;SDS011;27787;44.594;11.046;2024-03-23T12:33:12;10.60;;;5.13;;
42124;SDS011;27787;44.594;11.046;2024-03-23T12:35:57;10.02;;;4.70;;
42124;SDS011;27787;44.594;11.046;2024-03-23T12:38:41;10.48;;;4.65;;
42124;SDS011;27787;44.594;11.046;2024-03-23T12:41:25;9.35;;;4.75;;
42124;SDS011;27787;44.594;11.046;2024-03-23T12:44:09;10.95;;;4.93;;
42124;SDS011;27787;44.594;11.046;2024-03-23T12:46:55;10.52;;;4.82;;
42124;SDS011;27787;44.594;11.046;2024-03-23T12:49:39;11.77;;;4.88;;
42124;SDS011;27787;44.594;11.046;2024-03-23T12:52:23;11.95;;;5.63;;
42124;SDS011;27787;44.594;11.046;2024-03-23T12:55:11;15.73;;;5.55;;
42124;SDS011;27787;44.594;11.046;2024-03-23T12:57:56;10.60;;;5.30;;
42124;SDS011;27787;44.594;11.046;2024-03-23T13:00:43;11.00;;;4.78;;
42124;SDS011;27787;44.594;11.046;2024-03-23T13:03:27;9.80;;;5.40;;
42124;SDS011;27787;44.594;11.046;2024-03-23T13:06:12;10.75;;;4.38;;
42124;SDS011;27787;44.594;11.046;2024-03-23T13:08:56;11.50;;;4.38;;
42124;SDS011;27787;44.594;11.046;2024-03-23T13:11:41;9.33;;;4.67;;
42124;SDS011;27787;44.594;11.046;2024-03-23T13:14:25;9.85;;;4.43;;
42124;SDS011;27787;44.594;11.046;2024-03-23T13:17:09;13.38;;;5.22;;
42124;SDS011;27787;44.594;11.046;2024-03-23T13:19:53;8.07;;;4.88;;
42124;SDS011;27787;44.594;11.046;2024-03-23T13:22:39;11.48;;;4.97;;
42124;SDS011;27787;44.594;11.046;2024-03-23T13:25:23;9.18;;;5.35;;
42124;SDS011;27787;44.594;11.046;2024-03-23T13:28:07;10.10;;;4.90;;
42124;SDS011;27787;44.594;11.046;2024-03-23T13:30:53;14.30;;;4.78;;
42124;SDS011;27787;44.594;11.046;2024-03-23T13:33:39;12.63;;;5.65;;
42124;SDS011;27787;44.594;11.046;2024-03-23T13:36:26;11.80;;;5.03;;
42124;SDS011;27787;44.594;11.046;2024-03-23T13:39:11;12.32;;;5.50;;
42124;SDS011;27787;44.594;11.046;2024-03-23T13:41:55;8.98;;;4.93;;
42124;SDS011;27787;44.594;11.046;2024-03-23T13:44:40;8.88;;;4.65;;
42124;SDS011;27787;44.594;11.046;2024-03-23T13:47:24;11.30;;;5.13;;
42124;SDS011;27787;44.594;11.046;2024-03-23T13:50:08;11.02;;;5.18;;
42124;SDS011;27787;44.594;11.046;2024-03-23T13:52:53;12.52;;;4.90;;
42124;SDS011;27787;44.594;11.046;2024-03-23T13:55:37;9.15;;;5.25;;
42124;SDS011;27787;44.594;11.046;2024-03-23T13:58:21;11.10;;;4.97;;
42124;SDS011;27787;44.594;11.046;2024-03-23T14:01:07;12.85;;;5.53;;
42124;SDS011;27787;44.594;11.046;2024-03-23T14:03:52;10.68;;;4.45;;
42124;SDS011;27787;44.594;11.046;2024-03-23T14:06:37;9.35;;;4.50;;
42124;SDS011;27787;44.594;11.046;2024-03-23T14:09:25;10.30;;;4.25;;
42124;SDS011;27787;44.594;11.046;2024-03-23T14:12:09;10.30;;;5.35;;
42124;SDS011;27787;44.594;11.046;2024-03-23T14:14:53;12.23;;;5.43;;
42124;SDS011;27787;44.594;11.046;2024-03-23T14:17:37;17.63;;;5.30;;
42124;SDS011;27787;44.594;11.046;2024-03-23T14:20:23;9.95;;;4.60;;
42124;SDS011;27787;44.594;11.046;2024-03-23T14:23:07;12.40;;;5.95;;
42124;SDS011;27787;44.594;11.046;2024-03-23T14:25:52;10.35;;;5.05;;
42124;SDS011;27787;44.594;11.046;2024-03-23T14:31:21;13.30;;;5.30;;
42124;SDS011;27787;44.594;11.046;2024-03-23T14:34:06;11.10;;;4.78;;
42124;SDS011;27787;44.594;11.046;2024-03-23T14:36:50;10.65;;;5.35;;
42124;SDS011;27787;44.594;11.046;2024-03-23T14:39:34;9.98;;;4.47;;
42124;SDS011;27787;44.594;11.046;2024-03-23T14:42:18;10.93;;;4.75;;
42124;SDS011;27787;44.594;11.046;2024-03-23T14:45:03;15.65;;;5.63;;
42124;SDS011;27787;44.594;11.046;2024-03-23T14:47:47;9.00;;;4.37;;
42124;SDS011;27787;44.594;11.046;2024-03-23T14:50:32;9.43;;;4.07;;
42124;SDS011;27787;44.594;11.046;2024-03-23T14:53:15;9.35;;;4.13;;
42124;SDS011;27787;44.594;11.046;2024-03-23T14:56:00;8.95;;;4.53;;
42124;SDS011;27787;44.594;11.046;2024-03-23T14:58:46;8.73;;;4.10;;
42124;SDS011;27787;44.594;11.046;2024-03-23T15:01:31;7.63;;;4.05;;
42124;SDS011;27787;44.594;11.046;2024-03-23T15:04:15;7.93;;;3.77;;
42124;SDS011;27787;44.594;11.046;2024-03-23T15:07:00;10.70;;;3.85;;
42124;SDS011;27787;44.594;11.046;2024-03-23T15:09:44;12.02;;;3.75;;
42124;SDS011;27787;44.594;11.046;2024-03-23T15:12:29;11.90;;;3.83;;
42124;SDS011;27787;44.594;11.046;2024-03-23T15:15:13;9.40;;;3.75;;
42124;SDS011;27787;44.594;11.046;2024-03-23T15:17:58;8.02;;;3.80;;
42124;SDS011;27787;44.594;11.046;2024-03-23T15:20:51;6.13;;;3.58;;
42124;SDS011;27787;44.594;11.046;2024-03-23T15:23:36;4.20;;;1.80;;
42124;SDS011;27787;44.594;11.046;2024-03-23T15:26:20;9.75;;;2.05;;
42124;SDS011;27787;44.594;11.046;2024-03-23T15:29:04;6.25;;;1.52;;
42124;SDS011;27787;44.594;11.046;2024-03-23T15:31:56;8.68;;;1.52;;
42124;SDS011;27787;44.594;11.046;2024-03-23T15:34:40;6.25;;;1.52;;
42124;SDS011;27787;44.594;11.046;2024-03-23T15:37:25;3.53;;;1.60;;
42124;SDS011;27787;44.594;11.046;2024-03-23T15:40:09;5.70;;;1.85;;
42124;SDS011;27787;44.594;11.046;2024-03-23T15:42:54;8.63;;;2.30;;
42124;SDS011;27787;44.594;11.046;2024-03-23T15:45:38;4.70;;;1.30;;
42124;SDS011;27787;44.594;11.046;2024-03-23T15:48:22;6.80;;;1.77;;
42124;SDS011;27787;44.594;11.046;2024-03-23T15:51:07;4.18;;;1.42;;
42124;SDS011;27787;44.594;11.046;2024-03-23T15:53:51;6.47;;;1.40;;
42124;SDS011;27787;44.594;11.046;2024-03-23T15:56:40;7.90;;;1.80;;
42124;SDS011;27787;44.594;11.046;2024-03-23T15:59:24;9.85;;;1.95;;
42124;SDS011;27787;44.594;11.046;2024-03-23T16:02:09;11.15;;;1.65;;
42124;SDS011;27787;44.594;11.046;2024-03-23T16:04:54;7.33;;;1.97;;
42124;SDS011;27787;44.594;11.046;2024-03-23T16:07:39;4.88;;;1.85;;
42124;SDS011;27787;44.594;11.046;2024-03-23T16:10:23;9.40;;;4.20;;
42124;SDS011;27787;44.594;11.046;2024-03-23T16:13:07;6.97;;;2.60;;
42124;SDS011;27787;44.594;11.046;2024-03-23T16:15:55;14.93;;;2.83;;
42124;SDS011;27787;44.594;11.046;2024-03-23T16:18:40;5.60;;;2.40;;
42124;SDS011;27787;44.594;11.046;2024-03-23T16:21:24;5.45;;;1.98;;
42124;SDS011;27787;44.594;11.046;2024-03-23T16:24:08;9.88;;;1.73;;
42124;SDS011;27787;44.594;11.046;2024-03-23T16:26:53;6.17;;;1.47;;
42124;SDS011;27787;44.594;11.046;2024-03-23T16:29:37;9.93;;;1.90;;
42124;SDS011;27787;44.594;11.046;2024-03-23T16:32:20;3.33;;;1.48;;
42124;SDS011;27787;44.594;11.046;2024-03-23T16:35:07;12.23;;;2.67;;
42124;SDS011;27787;44.594;11.046;2024-03-23T16:37:54;6.45;;;2.00;;
42124;SDS011;27787;44.594;11.046;2024-03-23T16:40:38;6.30;;;2.20;;
42124;SDS011;27787;44.594;11.046;2024-03-23T16:43:22;7.85;;;1.98;;
42124;SDS011;27787;44.594;11.046;2024-03-23T16:46:11;4.63;;;1.63;;
42124;SDS011;27787;44.594;11.046;2024-03-23T16:48:58;6.50;;;2.03;;
42124;SDS011;27787;44.594;11.046;2024-03-23T16:51:42;7.32;;;1.60;;
42124;SDS011;27787;44.594;11.046;2024-03-23T16:54:26;5.17;;;2.30;;
42124;SDS011;27787;44.594;11.046;2024-03-23T16:59:56;5.43;;;1.73;;
42124;SDS011;27787;44.594;11.046;2024-03-23T17:02:40;5.35;;;1.83;;
42124;SDS011;27787;44.594;11.046;2024-03-23T17:05:24;11.02;;;1.98;;
42124;SDS011;27787;44.594;11.046;2024-03-23T17:08:08;4.50;;;1.75;;
42124;SDS011;27787;44.594;11.046;2024-03-23T17:10:57;8.45;;;2.40;;
42124;SDS011;27787;44.594;11.046;2024-03-23T17:13:41;7.22;;;2.33;;
42124;SDS011;27787;44.594;11.046;2024-03-23T17:16:25;5.68;;;1.75;;
42124;SDS011;27787;44.594;11.046;2024-03-23T17:19:13;4.57;;;1.90;;
42124;SDS011;27787;44.594;11.046;2024-03-23T17:21:58;7.03;;;1.53;;